sensor_id;sensor_type;location;lat;lon;timestamp;P1;durP1;ratioP1;P2;durP2;ratioP2
781;SDS011;374;52.568;13.402;2023-06-05T00:00:46;3.27;;;2.40;;
781;SDS011;374;52.568;13.402;2023-06-05T00:03:12;5.60;;;3.90;;
781;SDS011;374;52.568;13.402;2023-06-05T00:05:37;2.57;;;2.37;;
781;SDS011;374;52.568;13.402;2023-06-05T00:08:03;2.97;;;2.70;;
781;SDS011;374;52.568;13.402;2023-06-05T00:10:28;2.07;;;1.93;;
781;SDS011;374;52.568;13.402;2023-06-05T00:12:54;3.07;;;2.30;;
781;SDS011;374;52.568;13.402;2023-06-05T00:15:19;4.27;;;3.30;;
781;SDS011;374;52.568;13.402;2023-06-05T00:17:45;3.37;;;2.37;;
781;SDS011;374;52.568;13.402;2023-06-05T00:20:12;2.53;;;2.33;;
781;SDS011;374;52.568;13.402;2023-06-05T00:22:37;2.10;;;2.00;;
781;SDS011;374;52.568;13.402;2023-06-05T00:25:04;2.57;;;2.37;;
781;SDS011;374;52.568;13.402;2023-06-05T00:27:30;2.30;;;2.10;;
781;SDS011;374;52.568;13.402;2023-06-05T00:29:56;3.20;;;2.73;;
781;SDS011;374;52.568;13.402;2023-06-05T00:32:21;1.93;;;1.83;;
781;SDS011;374;52.568;13.402;2023-06-05T00:34:47;3.73;;;2.10;;
781;SDS011;374;52.568;13.402;2023-06-05T00:37:15;2.47;;;2.20;;
781;SDS011;374;52.568;13.402;2023-06-05T00:39:40;7.37;;;2.80;;
781;SDS011;374;52.568;13.402;2023-06-05T00:42:06;2.13;;;2.00;;
781;SDS011;374;52.568;13.402;2023-06-05T00:44:33;2.83;;;2.63;;
781;SDS011;374;52.568;13.402;2023-06-05T00:46:59;2.20;;;2.00;;
781;SDS011;374;52.568;13.402;2023-06-05T00:49:24;5.93;;;2.30;;
781;SDS011;374;52.568;13.402;2023-06-05T00:51:50;2.53;;;2.10;;
781;SDS011;374;52.568;13.402;2023-06-05T00:54:16;3.63;;;1.90;;
781;SDS011;374;52.568;13.402;2023-06-05T00:56:42;2.40;;;2.20;;
781;SDS011;374;52.568;13.402;2023-06-05T00:59:08;2.70;;;2.50;;
781;SDS011;374;52.568;13.402;2023-06-05T01:01:33;2.13;;;1.93;;
781;SDS011;374;52.568;13.402;2023-06-05T01:04:00;1.63;;;1.53;;
781;SDS011;374;52.568;13.402;2023-06-05T01:06:28;2.93;;;1.70;;
781;SDS011;374;52.568;13.402;2023-06-05T01:08:59;2.23;;;2.13;;
781;SDS011;374;52.568;13.402;2023-06-05T01:11:32;3.80;;;1.90;;
781;SDS011;374;52.568;13.402;2023-06-05T01:14:19;3.83;;;2.13;;
781;SDS011;374;52.568;13.402;2023-06-05T01:16:53;2.17;;;1.97;;
781;SDS011;374;52.568;13.402;2023-06-05T01:19:19;2.30;;;2.10;;
781;SDS011;374;52.568;13.402;2023-06-05T01:21:46;2.37;;;2.17;;
781;SDS011;374;52.568;13.402;2023-06-05T01:24:12;2.67;;;2.03;;
781;SDS011;374;52.568;13.402;2023-06-05T01:29:21;2.93;;;2.60;;
781;SDS011;374;52.568;13.402;2023-06-05T01:31:54;2.40;;;2.00;;
781;SDS011;374;52.568;13.402;2023-06-05T01:34:24;2.07;;;1.97;;
781;SDS011;374;52.568;13.402;2023-06-05T01:36:51;2.30;;;2.20;;
781;SDS011;374;52.568;13.402;2023-06-05T01:39:17;3.60;;;2.50;;
781;SDS011;374;52.568;13.402;2023-06-05T01:41:44;2.10;;;1.90;;
781;SDS011;374;52.568;13.402;2023-06-05T01:44:11;3.67;;;2.30;;
781;SDS011;374;52.568;13.402;2023-06-05T01:46:40;2.20;;;1.67;;
781;SDS011;374;52.568;13.402;2023-06-05T01:49:06;2.80;;;2.03;;
781;SDS011;374;52.568;13.402;2023-06-05T01:51:33;1.70;;;1.60;;
781;SDS011;374;52.568;13.402;2023-06-05T01:53:59;2.00;;;1.90;;
781;SDS011;374;52.568;13.402;2023-06-05T01:56:25;2.70;;;2.20;;
781;SDS011;374;52.568;13.402;2023-06-05T01:58:50;2.57;;;2.37;;
781;SDS011;374;52.568;13.402;2023-06-05T02:01:18;2.60;;;2.00;;
781;SDS011;374;52.568;13.402;2023-06-05T02:03:47;4.07;;;2.30;;
781;SDS011;374;52.568;13.402;2023-06-05T02:06:14;4.80;;;2.57;;
781;SDS011;374;52.568;13.402;2023-06-05T02:08:43;2.60;;;2.40;;
781;SDS011;374;52.568;13.402;2023-06-05T02:11:08;3.23;;;1.97;;
781;SDS011;374;52.568;13.402;2023-06-05T02:13:37;4.33;;;2.40;;
781;SDS011;374;52.568;13.402;2023-06-05T02:16:04;4.20;;;2.30;;
781;SDS011;374;52.568;13.402;2023-06-05T02:18:33;2.80;;;2.50;;
781;SDS011;374;52.568;13.402;2023-06-05T02:21:02;3.13;;;2.03;;
781;SDS011;374;52.568;13.402;2023-06-05T02:23:28;2.37;;;2.17;;
781;SDS011;374;52.568;13.402;2023-06-05T02:25:53;3.27;;;2.20;;
781;SDS011;374;52.568;13.402;2023-06-05T02:28:19;2.80;;;2.10;;
781;SDS011;374;52.568;13.402;2023-06-05T02:30:45;2.20;;;2.00;;
781;SDS011;374;52.568;13.402;2023-06-05T02:33:12;2.43;;;2.23;;
781;SDS011;374;52.568;13.402;2023-06-05T02:35:39;3.07;;;1.90;;
781;SDS011;374;52.568;13.402;2023-06-05T02:38:05;3.80;;;2.50;;
781;SDS011;374;52.568;13.402;2023-06-05T02:40:32;2.90;;;2.20;;
781;SDS011;374;52.568;13.402;2023-06-05T02:42:57;2.53;;;2.10;;
781;SDS011;374;52.568;13.402;2023-06-05T02:45:23;2.53;;;2.33;;
781;SDS011;374;52.568;13.402;2023-06-05T02:47:48;5.50;;;2.30;;
781;SDS011;374;52.568;13.402;2023-06-05T02:50:14;2.27;;;2.07;;
781;SDS011;374;52.568;13.402;2023-06-05T02:52:39;2.20;;;2.00;;
781;SDS011;374;52.568;13.402;2023-06-05T02:55:08;2.57;;;2.20;;
781;SDS011;374;52.568;13.402;2023-06-05T02:57:34;4.43;;;2.50;;
781;SDS011;374;52.568;13.402;2023-06-05T03:00:07;4.47;;;2.73;;
781;SDS011;374;52.568;13.402;2023-06-05T03:02:33;7.30;;;2.70;;
781;SDS011;374;52.568;13.402;2023-06-05T03:05:01;4.03;;;2.73;;
781;SDS011;374;52.568;13.402;2023-06-05T03:07:29;4.40;;;2.77;;
781;SDS011;374;52.568;13.402;2023-06-05T03:09:55;3.97;;;2.20;;
781;SDS011;374;52.568;13.402;2023-06-05T03:12:21;9.17;;;4.93;;
781;SDS011;374;52.568;13.402;2023-06-05T03:14:46;3.40;;;3.20;;
781;SDS011;374;52.568;13.402;2023-06-05T03:17:14;5.03;;;3.10;;
781;SDS011;374;52.568;13.402;2023-06-05T03:19:40;2.90;;;2.33;;
781;SDS011;374;52.568;13.402;2023-06-05T03:22:06;2.57;;;2.37;;
781;SDS011;374;52.568;13.402;2023-06-05T03:24:32;2.33;;;2.07;;
781;SDS011;374;52.568;13.402;2023-06-05T03:26:57;2.27;;;2.00;;
781;SDS011;374;52.568;13.402;2023-06-05T03:29:23;1.70;;;1.60;;
781;SDS011;374;52.568;13.402;2023-06-05T03:31:48;3.60;;;2.00;;
781;SDS011;374;52.568;13.402;2023-06-05T03:34:14;6.97;;;3.07;;
781;SDS011;374;52.568;13.402;2023-06-05T03:36:39;2.30;;;2.10;;
781;SDS011;374;52.568;13.402;2023-06-05T03:39:05;3.00;;;2.13;;
781;SDS011;374;52.568;13.402;2023-06-05T03:41:31;3.70;;;2.60;;
781;SDS011;374;52.568;13.402;2023-06-05T03:43:57;3.50;;;2.00;;
781;SDS011;374;52.568;13.402;2023-06-05T03:46:23;2.57;;;2.23;;
781;SDS011;374;52.568;13.402;2023-06-05T03:48:49;4.97;;;2.30;;
781;SDS011;374;52.568;13.402;2023-06-05T03:51:15;2.10;;;1.90;;
781;SDS011;374;52.568;13.402;2023-06-05T03:53:43;2.87;;;2.47;;
781;SDS011;374;52.568;13.402;2023-06-05T03:56:09;3.53;;;2.37;;
781;SDS011;374;52.568;13.402;2023-06-05T03:58:35;3.07;;;2.87;;
781;SDS011;374;52.568;13.402;2023-06-05T04:01:00;2.40;;;2.03;;
781;SDS011;374;52.568;13.402;2023-06-05T04:03:26;2.10;;;1.90;;
781;SDS011;374;52.568;13.402;2023-06-05T04:05:52;3.50;;;2.60;;
781;SDS011;374;52.568;13.402;2023-06-05T04:08:17;4.23;;;2.13;;
781;SDS011;374;52.568;13.402;2023-06-05T04:10:43;2.93;;;2.23;;
781;SDS011;374;52.568;13.402;2023-06-05T04:13:08;3.73;;;2.10;;
781;SDS011;374;52.568;13.402;2023-06-05T04:15:34;2.53;;;2.10;;
781;SDS011;374;52.568;13.402;2023-06-05T04:18:00;2.83;;;2.33;;
781;SDS011;374;52.568;13.402;2023-06-05T04:20:25;1.83;;;1.73;;
781;SDS011;374;52.568;13.402;2023-06-05T04:22:51;2.07;;;1.93;;
781;SDS011;374;52.568;13.402;2023-06-05T04:25:16;2.60;;;1.80;;
781;SDS011;374;52.568;13.402;2023-06-05T04:27:43;3.40;;;1.90;;
781;SDS011;374;52.568;13.402;2023-06-05T04:30:11;2.23;;;2.03;;
781;SDS011;374;52.568;13.402;2023-06-05T04:32:37;2.33;;;2.13;;
781;SDS011;374;52.568;13.402;2023-06-05T04:37:31;2.70;;;2.10;;
781;SDS011;374;52.568;13.402;2023-06-05T04:39:57;5.20;;;2.33;;
781;SDS011;374;52.568;13.402;2023-06-05T04:42:23;5.67;;;2.60;;
781;SDS011;374;52.568;13.402;2023-06-05T04:44:53;3.73;;;2.70;;
781;SDS011;374;52.568;13.402;2023-06-05T04:47:22;3.63;;;2.53;;
781;SDS011;374;52.568;13.402;2023-06-05T04:49:48;4.80;;;2.40;;
781;SDS011;374;52.568;13.402;2023-06-05T04:52:16;6.80;;;2.60;;
781;SDS011;374;52.568;13.402;2023-06-05T04:54:42;3.27;;;2.30;;
781;SDS011;374;52.568;13.402;2023-06-05T04:57:09;2.97;;;2.67;;
781;SDS011;374;52.568;13.402;2023-06-05T04:59:36;2.93;;;2.60;;
781;SDS011;374;52.568;13.402;2023-06-05T05:02:02;3.17;;;2.87;;
781;SDS011;374;52.568;13.402;2023-06-05T05:04:28;9.03;;;2.63;;
781;SDS011;374;52.568;13.402;2023-06-05T05:06:54;4.03;;;2.67;;
781;SDS011;374;52.568;13.402;2023-06-05T05:09:20;5.53;;;3.20;;
781;SDS011;374;52.568;13.402;2023-06-05T05:11:45;5.03;;;3.43;;
781;SDS011;374;52.568;13.402;2023-06-05T05:14:10;5.20;;;3.80;;
781;SDS011;374;52.568;13.402;2023-06-05T05:16:36;4.77;;;3.90;;
781;SDS011;374;52.568;13.402;2023-06-05T05:19:01;8.40;;;4.17;;
781;SDS011;374;52.568;13.402;2023-06-05T05:21:27;6.17;;;3.87;;
781;SDS011;374;52.568;13.402;2023-06-05T05:23:52;5.23;;;3.57;;
781;SDS011;374;52.568;13.402;2023-06-05T05:26:18;8.50;;;4.10;;
781;SDS011;374;52.568;13.402;2023-06-05T05:28:43;5.63;;;3.60;;
781;SDS011;374;52.568;13.402;2023-06-05T05:31:09;4.80;;;3.07;;
781;SDS011;374;52.568;13.402;2023-06-05T05:33:34;5.50;;;3.63;;
781;SDS011;374;52.568;13.402;2023-06-05T05:36:00;8.03;;;4.13;;
781;SDS011;374;52.568;13.402;2023-06-05T05:38:26;5.83;;;3.00;;
781;SDS011;374;52.568;13.402;2023-06-05T05:40:51;5.00;;;3.57;;
781;SDS011;374;52.568;13.402;2023-06-05T05:43:17;7.77;;;3.07;;
781;SDS011;374;52.568;13.402;2023-06-05T05:45:42;3.97;;;2.90;;
781;SDS011;374;52.568;13.402;2023-06-05T05:48:08;6.47;;;3.90;;
781;SDS011;374;52.568;13.402;2023-06-05T05:50:34;9.37;;;3.20;;
781;SDS011;374;52.568;13.402;2023-06-05T05:53:00;5.27;;;3.63;;
781;SDS011;374;52.568;13.402;2023-06-05T05:55:25;8.17;;;3.47;;
781;SDS011;374;52.568;13.402;2023-06-05T05:57:51;6.70;;;3.40;;
781;SDS011;374;52.568;13.402;2023-06-05T06:00:17;6.63;;;3.20;;
781;SDS011;374;52.568;13.402;2023-06-05T06:02:42;3.40;;;3.10;;
781;SDS011;374;52.568;13.402;2023-06-05T06:05:08;5.90;;;3.17;;
781;SDS011;374;52.568;13.402;2023-06-05T06:07:35;7.93;;;3.27;;
781;SDS011;374;52.568;13.402;2023-06-05T06:10:01;5.67;;;3.40;;
781;SDS011;374;52.568;13.402;2023-06-05T06:12:27;6.47;;;3.40;;
781;SDS011;374;52.568;13.402;2023-06-05T06:14:53;5.80;;;3.80;;
781;SDS011;374;52.568;13.402;2023-06-05T06:17:19;8.77;;;3.20;;
781;SDS011;374;52.568;13.402;2023-06-05T06:19:45;3.57;;;3.27;;
781;SDS011;374;52.568;13.402;2023-06-05T06:22:13;6.20;;;3.37;;
781;SDS011;374;52.568;13.402;2023-06-05T06:24:39;5.03;;;3.60;;
781;SDS011;374;52.568;13.402;2023-06-05T06:27:06;11.27;;;3.73;;
781;SDS011;374;52.568;13.402;2023-06-05T06:29:31;5.37;;;2.70;;
781;SDS011;374;52.568;13.402;2023-06-05T06:31:57;6.70;;;2.60;;
781;SDS011;374;52.568;13.402;2023-06-05T06:34:22;4.63;;;3.17;;
781;SDS011;374;52.568;13.402;2023-06-05T06:36:49;3.30;;;3.00;;
781;SDS011;374;52.568;13.402;2023-06-05T06:39:15;3.03;;;2.57;;
781;SDS011;374;52.568;13.402;2023-06-05T06:41:43;3.70;;;2.90;;
781;SDS011;374;52.568;13.402;2023-06-05T06:44:09;5.03;;;3.00;;
781;SDS011;374;52.568;13.402;2023-06-05T06:46:34;7.30;;;2.90;;
781;SDS011;374;52.568;13.402;2023-06-05T06:49:00;5.83;;;3.33;;
781;SDS011;374;52.568;13.402;2023-06-05T06:51:26;3.40;;;2.77;;
781;SDS011;374;52.568;13.402;2023-06-05T06:53:51;11.80;;;3.27;;
781;SDS011;374;52.568;13.402;2023-06-05T06:56:17;3.77;;;3.43;;
781;SDS011;374;52.568;13.402;2023-06-05T06:58:45;4.90;;;3.03;;
781;SDS011;374;52.568;13.402;2023-06-05T07:01:11;3.50;;;3.03;;
781;SDS011;374;52.568;13.402;2023-06-05T07:03:37;6.50;;;3.60;;
781;SDS011;374;52.568;13.402;2023-06-05T07:06:05;3.43;;;2.53;;
781;SDS011;374;52.568;13.402;2023-06-05T07:08:30;9.10;;;3.60;;
781;SDS011;374;52.568;13.402;2023-06-05T07:10:56;4.23;;;3.33;;
781;SDS011;374;52.568;13.402;2023-06-05T07:13:21;5.43;;;2.80;;
781;SDS011;374;52.568;13.402;2023-06-05T07:15:48;4.83;;;2.77;;
781;SDS011;374;52.568;13.402;2023-06-05T07:18:14;3.97;;;3.03;;
781;SDS011;374;52.568;13.402;2023-06-05T07:20:42;3.70;;;2.70;;
781;SDS011;374;52.568;13.402;2023-06-05T07:23:07;4.20;;;3.30;;
781;SDS011;374;52.568;13.402;2023-06-05T07:25:32;7.57;;;3.87;;
781;SDS011;374;52.568;13.402;2023-06-05T07:27:58;5.00;;;2.90;;
781;SDS011;374;52.568;13.402;2023-06-05T07:30:25;8.43;;;3.50;;
781;SDS011;374;52.568;13.402;2023-06-05T07:32:53;4.53;;;2.53;;
781;SDS011;374;52.568;13.402;2023-06-05T07:35:20;9.97;;;3.00;;
781;SDS011;374;52.568;13.402;2023-06-05T07:37:46;6.27;;;2.80;;
781;SDS011;374;52.568;13.402;2023-06-05T07:40:11;6.93;;;2.87;;
781;SDS011;374;52.568;13.402;2023-06-05T07:42:37;4.60;;;3.17;;
781;SDS011;374;52.568;13.402;2023-06-05T07:45:03;6.43;;;2.60;;
781;SDS011;374;52.568;13.402;2023-06-05T07:47:28;3.23;;;2.83;;
781;SDS011;374;52.568;13.402;2023-06-05T07:50:01;3.47;;;2.63;;
781;SDS011;374;52.568;13.402;2023-06-05T07:52:31;4.23;;;2.80;;
781;SDS011;374;52.568;13.402;2023-06-05T07:54:57;7.40;;;3.20;;
781;SDS011;374;52.568;13.402;2023-06-05T07:57:23;4.20;;;3.23;;
781;SDS011;374;52.568;13.402;2023-06-05T07:59:49;6.27;;;3.60;;
781;SDS011;374;52.568;13.402;2023-06-05T08:02:15;7.13;;;3.03;;
781;SDS011;374;52.568;13.402;2023-06-05T08:04:44;3.90;;;2.93;;
781;SDS011;374;52.568;13.402;2023-06-05T08:07:10;8.27;;;3.37;;
781;SDS011;374;52.568;13.402;2023-06-05T08:09:36;2.90;;;2.70;;
781;SDS011;374;52.568;13.402;2023-06-05T08:12:03;4.07;;;3.50;;
781;SDS011;374;52.568;13.402;2023-06-05T08:14:29;7.63;;;3.33;;
781;SDS011;374;52.568;13.402;2023-06-05T08:16:54;3.40;;;2.60;;
781;SDS011;374;52.568;13.402;2023-06-05T08:19:20;3.10;;;2.67;;
781;SDS011;374;52.568;13.402;2023-06-05T08:21:46;7.10;;;2.80;;
781;SDS011;374;52.568;13.402;2023-06-05T08:24:15;5.97;;;3.10;;
781;SDS011;374;52.568;13.402;2023-06-05T08:26:40;3.43;;;2.60;;
781;SDS011;374;52.568;13.402;2023-06-05T08:29:06;7.90;;;2.83;;
781;SDS011;374;52.568;13.402;2023-06-05T08:31:32;5.80;;;2.77;;
781;SDS011;374;52.568;13.402;2023-06-05T08:33:59;5.87;;;2.73;;
781;SDS011;374;52.568;13.402;2023-06-05T08:36:25;4.30;;;2.50;;
781;SDS011;374;52.568;13.402;2023-06-05T08:38:50;4.07;;;2.67;;
781;SDS011;374;52.568;13.402;2023-06-05T08:41:15;3.17;;;2.63;;
781;SDS011;374;52.568;13.402;2023-06-05T08:43:41;7.07;;;2.43;;
781;SDS011;374;52.568;13.402;2023-06-05T08:46:09;4.10;;;2.17;;
781;SDS011;374;52.568;13.402;2023-06-05T08:48:37;2.50;;;2.30;;
781;SDS011;374;52.568;13.402;2023-06-05T08:51:08;3.20;;;2.73;;
781;SDS011;374;52.568;13.402;2023-06-05T08:53:37;5.30;;;2.30;;
781;SDS011;374;52.568;13.402;2023-06-05T08:56:04;2.23;;;2.10;;
781;SDS011;374;52.568;13.402;2023-06-05T08:58:31;2.70;;;2.50;;
781;SDS011;374;52.568;13.402;2023-06-05T09:00:57;5.43;;;2.17;;
781;SDS011;374;52.568;13.402;2023-06-05T09:03:23;3.87;;;2.70;;
781;SDS011;374;52.568;13.402;2023-06-05T09:05:50;2.60;;;2.40;;
781;SDS011;374;52.568;13.402;2023-06-05T09:08:17;3.20;;;2.17;;
781;SDS011;374;52.568;13.402;2023-06-05T09:10:52;2.50;;;2.30;;
781;SDS011;374;52.568;13.402;2023-06-05T09:13:17;2.27;;;1.90;;
781;SDS011;374;52.568;13.402;2023-06-05T09:15:43;2.37;;;2.17;;
781;SDS011;374;52.568;13.402;2023-06-05T09:18:15;2.60;;;2.40;;
781;SDS011;374;52.568;13.402;2023-06-05T09:20:41;6.33;;;2.53;;
781;SDS011;374;52.568;13.402;2023-06-05T09:23:24;2.80;;;2.20;;
781;SDS011;374;52.568;13.402;2023-06-05T09:25:52;2.20;;;2.07;;
781;SDS011;374;52.568;13.402;2023-06-05T09:28:19;3.60;;;2.20;;
781;SDS011;374;52.568;13.402;2023-06-05T09:30:59;5.80;;;2.10;;
781;SDS011;374;52.568;13.402;2023-06-05T09:33:33;2.40;;;2.20;;
781;SDS011;374;52.568;13.402;2023-06-05T09:36:06;2.47;;;2.30;;
781;SDS011;374;52.568;13.402;2023-06-05T09:38:34;2.00;;;1.80;;
781;SDS011;374;52.568;13.402;2023-06-05T09:41:05;4.47;;;2.53;;
781;SDS011;374;52.568;13.402;2023-06-05T09:43:32;3.53;;;2.23;;
781;SDS011;374;52.568;13.402;2023-06-05T09:45:57;2.40;;;2.30;;
781;SDS011;374;52.568;13.402;2023-06-05T09:48:23;2.13;;;1.93;;
781;SDS011;374;52.568;13.402;2023-06-05T09:50:50;4.70;;;2.23;;
781;SDS011;374;52.568;13.402;2023-06-05T09:53:17;2.63;;;2.43;;
781;SDS011;374;52.568;13.402;2023-06-05T09:55:45;3.67;;;2.37;;
781;SDS011;374;52.568;13.402;2023-06-05T09:58:11;2.03;;;1.90;;
781;SDS011;374;52.568;13.402;2023-06-05T10:00:39;3.20;;;2.40;;
781;SDS011;374;52.568;13.402;2023-06-05T10:03:07;2.30;;;2.10;;
781;SDS011;374;52.568;13.402;2023-06-05T10:05:38;2.03;;;1.93;;
781;SDS011;374;52.568;13.402;2023-06-05T10:08:05;2.17;;;1.97;;
781;SDS011;374;52.568;13.402;2023-06-05T10:10:31;2.47;;;2.10;;
781;SDS011;374;52.568;13.402;2023-06-05T10:12:58;4.70;;;2.50;;
781;SDS011;374;52.568;13.402;2023-06-05T10:15:26;2.60;;;2.40;;
781;SDS011;374;52.568;13.402;2023-06-05T10:17:52;1.90;;;1.80;;
781;SDS011;374;52.568;13.402;2023-06-05T10:20:19;2.17;;;1.80;;
781;SDS011;374;52.568;13.402;2023-06-05T10:22:46;2.83;;;2.40;;
781;SDS011;374;52.568;13.402;2023-06-05T10:25:13;3.13;;;2.60;;
781;SDS011;374;52.568;13.402;2023-06-05T10:38:21;2.33;;;1.97;;
781;SDS011;374;52.568;13.402;2023-06-05T10:40:52;4.03;;;2.00;;
781;SDS011;374;52.568;13.402;2023-06-05T10:43:23;2.53;;;2.33;;
781;SDS011;374;52.568;13.402;2023-06-05T10:45:52;3.90;;;2.20;;
781;SDS011;374;52.568;13.402;2023-06-05T10:48:19;2.47;;;2.27;;
781;SDS011;374;52.568;13.402;2023-06-05T10:50:44;4.00;;;2.23;;
781;SDS011;374;52.568;13.402;2023-06-05T10:53:40;4.50;;;2.67;;
781;SDS011;374;52.568;13.402;2023-06-05T10:56:06;2.70;;;2.10;;
781;SDS011;374;52.568;13.402;2023-06-05T10:58:32;3.20;;;2.40;;
781;SDS011;374;52.568;13.402;2023-06-05T11:03:57;2.97;;;2.10;;
781;SDS011;374;52.568;13.402;2023-06-05T11:06:24;4.97;;;2.50;;
781;SDS011;374;52.568;13.402;2023-06-05T11:09:09;4.40;;;2.63;;
781;SDS011;374;52.568;13.402;2023-06-05T11:14:23;2.70;;;2.50;;
781;SDS011;374;52.568;13.402;2023-06-05T11:17:30;2.70;;;2.43;;
781;SDS011;374;52.568;13.402;2023-06-05T11:19:55;2.60;;;2.40;;
781;SDS011;374;52.568;13.402;2023-06-05T11:22:21;3.67;;;2.70;;
781;SDS011;374;52.568;13.402;2023-06-05T11:25:23;3.30;;;2.10;;
781;SDS011;374;52.568;13.402;2023-06-05T11:27:43;3.57;;;2.80;;
781;SDS011;374;52.568;13.402;2023-06-05T11:30:13;3.10;;;2.80;;
781;SDS011;374;52.568;13.402;2023-06-05T11:32:51;3.27;;;2.90;;
781;SDS011;374;52.568;13.402;2023-06-05T11:35:23;2.53;;;2.33;;
781;SDS011;374;52.568;13.402;2023-06-05T11:38:06;2.60;;;2.40;;
781;SDS011;374;52.568;13.402;2023-06-05T11:40:33;2.60;;;2.40;;
781;SDS011;374;52.568;13.402;2023-06-05T11:43:05;3.83;;;2.30;;
781;SDS011;374;52.568;13.402;2023-06-05T11:45:32;5.53;;;2.87;;
781;SDS011;374;52.568;13.402;2023-06-05T11:48:12;4.60;;;3.10;;
781;SDS011;374;52.568;13.402;2023-06-05T11:53:18;3.30;;;3.00;;
781;SDS011;374;52.568;13.402;2023-06-05T11:55:44;3.07;;;2.83;;
781;SDS011;374;52.568;13.402;2023-06-05T11:58:24;2.90;;;2.70;;
781;SDS011;374;52.568;13.402;2023-06-05T12:00:52;5.83;;;4.43;;
781;SDS011;374;52.568;13.402;2023-06-05T12:03:42;2.70;;;2.50;;
781;SDS011;374;52.568;13.402;2023-06-05T12:06:09;3.00;;;2.60;;
781;SDS011;374;52.568;13.402;2023-06-05T12:08:37;4.70;;;2.47;;
781;SDS011;374;52.568;13.402;2023-06-05T12:11:02;2.87;;;2.67;;
781;SDS011;374;52.568;13.402;2023-06-05T12:16:17;3.60;;;2.70;;
781;SDS011;374;52.568;13.402;2023-06-05T12:18:44;3.50;;;2.23;;
781;SDS011;374;52.568;13.402;2023-06-05T12:21:20;5.73;;;2.70;;
781;SDS011;374;52.568;13.402;2023-06-05T12:23:47;3.00;;;2.80;;
781;SDS011;374;52.568;13.402;2023-06-05T12:26:14;2.90;;;2.70;;
781;SDS011;374;52.568;13.402;2023-06-05T12:28:41;3.40;;;2.80;;
781;SDS011;374;52.568;13.402;2023-06-05T12:31:09;6.17;;;2.90;;
781;SDS011;374;52.568;13.402;2023-06-05T12:33:47;7.23;;;2.77;;
781;SDS011;374;52.568;13.402;2023-06-05T12:36:14;4.50;;;2.50;;
781;SDS011;374;52.568;13.402;2023-06-05T12:38:41;3.40;;;3.10;;
781;SDS011;374;52.568;13.402;2023-06-05T12:41:07;3.30;;;3.10;;
781;SDS011;374;52.568;13.402;2023-06-05T12:43:34;3.70;;;3.40;;
781;SDS011;374;52.568;13.402;2023-06-05T12:45:59;3.60;;;2.83;;
781;SDS011;374;52.568;13.402;2023-06-05T12:48:25;3.50;;;3.30;;
781;SDS011;374;52.568;13.402;2023-06-05T12:50:51;3.30;;;3.10;;
781;SDS011;374;52.568;13.402;2023-06-05T12:53:17;6.47;;;3.63;;
781;SDS011;374;52.568;13.402;2023-06-05T12:55:43;3.77;;;3.43;;
781;SDS011;374;52.568;13.402;2023-06-05T12:58:08;3.10;;;2.80;;
781;SDS011;374;52.568;13.402;2023-06-05T13:00:34;2.83;;;2.63;;
781;SDS011;374;52.568;13.402;2023-06-05T13:03:00;3.73;;;3.33;;
781;SDS011;374;52.568;13.402;2023-06-05T13:05:26;3.17;;;2.87;;
781;SDS011;374;52.568;13.402;2023-06-05T13:07:52;3.17;;;2.43;;
781;SDS011;374;52.568;13.402;2023-06-05T13:10:19;2.67;;;2.47;;
781;SDS011;374;52.568;13.402;2023-06-05T13:12:44;3.20;;;2.90;;
781;SDS011;374;52.568;13.402;2023-06-05T13:15:10;3.13;;;2.93;;
781;SDS011;374;52.568;13.402;2023-06-05T13:17:36;4.43;;;2.93;;
781;SDS011;374;52.568;13.402;2023-06-05T13:20:03;3.83;;;2.80;;
781;SDS011;374;52.568;13.402;2023-06-05T13:22:31;3.57;;;3.27;;
781;SDS011;374;52.568;13.402;2023-06-05T13:24:57;4.23;;;2.93;;
781;SDS011;374;52.568;13.402;2023-06-05T13:27:22;3.43;;;3.10;;
781;SDS011;374;52.568;13.402;2023-06-05T13:29:51;3.40;;;3.10;;
781;SDS011;374;52.568;13.402;2023-06-05T13:32:16;3.10;;;2.90;;
781;SDS011;374;52.568;13.402;2023-06-05T13:34:42;3.57;;;3.27;;
781;SDS011;374;52.568;13.402;2023-06-05T13:37:07;8.67;;;4.43;;
781;SDS011;374;52.568;13.402;2023-06-05T13:39:33;4.20;;;3.23;;
781;SDS011;374;52.568;13.402;2023-06-05T13:41:58;5.27;;;3.13;;
781;SDS011;374;52.568;13.402;2023-06-05T13:44:26;4.50;;;3.10;;
781;SDS011;374;52.568;13.402;2023-06-05T13:46:51;2.90;;;2.70;;
781;SDS011;374;52.568;13.402;2023-06-05T13:49:17;2.80;;;2.60;;
781;SDS011;374;52.568;13.402;2023-06-05T13:51:42;3.10;;;2.90;;
781;SDS011;374;52.568;13.402;2023-06-05T13:54:08;3.20;;;2.90;;
781;SDS011;374;52.568;13.402;2023-06-05T13:56:33;3.23;;;2.97;;
781;SDS011;374;52.568;13.402;2023-06-05T13:58:59;5.80;;;2.93;;
781;SDS011;374;52.568;13.402;2023-06-05T14:01:24;4.23;;;3.53;;
781;SDS011;374;52.568;13.402;2023-06-05T14:03:50;3.40;;;3.07;;
781;SDS011;374;52.568;13.402;2023-06-05T14:06:16;2.90;;;2.67;;
781;SDS011;374;52.568;13.402;2023-06-05T14:08:42;3.80;;;3.20;;
781;SDS011;374;52.568;13.402;2023-06-05T14:11:08;8.47;;;3.63;;
781;SDS011;374;52.568;13.402;2023-06-05T14:13:34;3.03;;;2.73;;
781;SDS011;374;52.568;13.402;2023-06-05T14:16:01;3.87;;;3.50;;
781;SDS011;374;52.568;13.402;2023-06-05T14:18:28;5.00;;;4.60;;
781;SDS011;374;52.568;13.402;2023-06-05T14:20:54;3.67;;;3.30;;
781;SDS011;374;52.568;13.402;2023-06-05T14:23:19;4.57;;;3.30;;
781;SDS011;374;52.568;13.402;2023-06-05T14:25:47;3.20;;;2.90;;
781;SDS011;374;52.568;13.402;2023-06-05T14:28:13;3.20;;;2.83;;
781;SDS011;374;52.568;13.402;2023-06-05T14:30:39;3.30;;;3.00;;
781;SDS011;374;52.568;13.402;2023-06-05T14:33:05;5.23;;;3.47;;
781;SDS011;374;52.568;13.402;2023-06-05T14:35:30;3.60;;;3.17;;
781;SDS011;374;52.568;13.402;2023-06-05T14:37:56;4.47;;;3.50;;
781;SDS011;374;52.568;13.402;2023-06-05T14:40:21;3.20;;;2.90;;
781;SDS011;374;52.568;13.402;2023-06-05T14:42:48;3.53;;;3.13;;
781;SDS011;374;52.568;13.402;2023-06-05T14:45:14;4.30;;;3.20;;
781;SDS011;374;52.568;13.402;2023-06-05T14:47:40;2.97;;;2.73;;
781;SDS011;374;52.568;13.402;2023-06-05T14:50:06;2.73;;;2.53;;
781;SDS011;374;52.568;13.402;2023-06-05T14:52:32;3.87;;;3.50;;
781;SDS011;374;52.568;13.402;2023-06-05T14:54:57;3.80;;;3.50;;
781;SDS011;374;52.568;13.402;2023-06-05T14:57:23;3.70;;;3.37;;
781;SDS011;374;52.568;13.402;2023-06-05T14:59:48;5.63;;;4.40;;
781;SDS011;374;52.568;13.402;2023-06-05T15:02:14;3.80;;;3.27;;
781;SDS011;374;52.568;13.402;2023-06-05T15:04:39;8.03;;;3.73;;
781;SDS011;374;52.568;13.402;2023-06-05T15:07:05;5.97;;;3.00;;
781;SDS011;374;52.568;13.402;2023-06-05T15:09:31;8.20;;;3.40;;
781;SDS011;374;52.568;13.402;2023-06-05T15:11:56;4.43;;;3.00;;
781;SDS011;374;52.568;13.402;2023-06-05T15:14:22;4.07;;;3.27;;
781;SDS011;374;52.568;13.402;2023-06-05T15:16:50;4.33;;;3.10;;
781;SDS011;374;52.568;13.402;2023-06-05T15:19:16;4.13;;;3.47;;
781;SDS011;374;52.568;13.402;2023-06-05T15:21:42;4.57;;;2.87;;
781;SDS011;374;52.568;13.402;2023-06-05T15:24:07;4.80;;;3.47;;
781;SDS011;374;52.568;13.402;2023-06-05T15:26:33;3.80;;;3.40;;
781;SDS011;374;52.568;13.402;2023-06-05T15:28:58;3.00;;;2.80;;
781;SDS011;374;52.568;13.402;2023-06-05T15:31:24;4.30;;;3.03;;
781;SDS011;374;52.568;13.402;2023-06-05T15:33:49;3.23;;;2.90;;
781;SDS011;374;52.568;13.402;2023-06-05T15:36:15;3.20;;;2.83;;
781;SDS011;374;52.568;13.402;2023-06-05T15:38:40;4.10;;;3.40;;
781;SDS011;374;52.568;13.402;2023-06-05T15:41:06;4.70;;;3.10;;
781;SDS011;374;52.568;13.402;2023-06-05T15:43:31;3.87;;;3.27;;
781;SDS011;374;52.568;13.402;2023-06-05T15:45:57;4.53;;;4.00;;
781;SDS011;374;52.568;13.402;2023-06-05T15:48:22;3.90;;;3.60;;
781;SDS011;374;52.568;13.402;2023-06-05T15:50:50;3.00;;;2.80;;
781;SDS011;374;52.568;13.402;2023-06-05T15:53:16;4.90;;;3.40;;
781;SDS011;374;52.568;13.402;2023-06-05T15:55:41;6.63;;;3.50;;